Time;durP1;ratioP1;P1;durP2;ratioP2;P2;SDS_P1;SDS_P2;PMS_P1;PMS_P2;Temp;Humidity;BMP_temperature;BMP_pressure;BME280_temperature;BME280_humidity;BME280_pressure;Samples;Min_cycle;Max_cycle;Signal;HPM_P1;HPM_P2
2022/09/03 00:01:44;;;;;;;8.27;2.00;;;14.30;1.00;;;;;;4999906;28;20406;-82
2022/09/03 00:04:20;;;;;;;9.43;2.67;;;14.30;1.00;;;;;;4991607;28;20546;-77
2022/09/03 00:06:57;;;;;;;6.40;2.57;;;14.30;1.00;;;;;;4989785;28;20477;-81
2022/09/03 00:09:29;;;;;;;5.87;2.07;;;14.30;1.00;;;;;;4979418;28;20511;-81
2022/09/03 00:12:09;;;;;;;6.63;1.90;;;14.20;1.00;;;;;;4999872;28;20435;-79
2022/09/03 00:14:39;;;;;;;8.27;3.13;;;14.20;1.00;;;;;;4987333;28;21229;-81
2022/09/03 00:17:15;;;;;;;6.70;2.17;;;14.20;1.00;;;;;;5006072;28;20422;-82
2022/09/03 00:19:53;;;;;;;5.67;2.07;;;14.20;1.00;;;;;;4997838;28;20438;-78
2022/09/03 00:22:29;;;;;;;6.37;2.20;;;14.10;1.00;;;;;;4993851;28;20550;-79
2022/09/03 00:24:59;;;;;;;6.43;2.17;;;14.20;1.00;;;;;;5002096;28;20491;-77
2022/09/03 00:27:28;;;;;;;6.13;1.90;;;14.10;1.00;;;;;;4975926;28;20445;-80
2022/09/03 00:29:58;;;;;;;7.60;2.20;;;14.00;1.00;;;;;;4992881;28;20461;-84
2022/09/03 00:32:37;;;;;;;5.60;1.77;;;14.10;1.00;;;;;;5006425;28;20434;-78
2022/09/03 00:35:15;;;;;;;5.60;1.80;;;14.10;1.00;;;;;;5021073;28;20441;-84
2022/09/03 00:37:48;;;;;;;5.80;1.50;;;14.10;1.00;;;;;;5016430;28;20446;-81
2022/09/03 00:40:48;;;;;;;6.40;1.40;;;14.00;1.00;;;;;;5025416;28;20421;-82
2022/09/03 00:43:33;;;;;;;9.03;2.17;;;14.00;1.00;;;;;;5015814;28;20479;-78
2022/09/03 00:46:12;;;;;;;5.67;1.60;;;14.00;1.00;;;;;;5014279;28;20418;-83
2022/09/03 00:48:55;;;;;;;9.83;1.90;;;13.90;1.00;;;;;;4999910;28;20472;-78
2022/09/03 00:51:33;;;;;;;9.53;2.07;;;13.90;1.00;;;;;;5012267;28;20418;-83
2022/09/03 00:54:12;;;;;;;6.50;2.00;;;13.90;1.00;;;;;;5016909;28;20464;-78
2022/09/03 00:56:50;;;;;;;7.30;1.87;;;13.90;1.00;;;;;;5016182;28;20505;-82
2022/09/03 00:59:40;;;;;;;7.40;2.37;;;13.80;1.00;;;;;;5019290;28;20512;-82
2022/09/03 01:02:19;;;;;;;6.17;2.00;;;13.80;1.00;;;;;;5017207;28;20456;-77
2022/09/03 01:05:00;;;;;;;7.10;1.90;;;13.70;1.00;;;;;;5009840;28;20452;-79
2022/09/03 01:07:37;;;;;;;7.83;2.07;;;13.70;1.00;;;;;;5025908;28;20449;-81
2022/09/03 01:10:15;;;;;;;5.43;1.60;;;13.70;1.00;;;;;;5030401;28;20417;-82
2022/09/03 01:12:54;;;;;;;9.30;1.90;;;13.70;1.00;;;;;;5028575;28;20450;-82
2022/09/03 01:15:31;;;;;;;6.60;2.47;;;13.70;1.00;;;;;;5014357;28;21395;-78
2022/09/03 01:18:15;;;;;;;7.00;2.03;;;13.60;1.00;;;;;;5019471;28;20445;-79
2022/09/03 01:20:53;;;;;;;7.83;2.03;;;13.60;1.00;;;;;;5015907;28;21003;-80
2022/09/03 01:24:06;;;;;;;6.07;2.13;;;13.60;1.00;;;;;;5023999;28;20548;-81
2022/09/03 01:27:02;;;;;;;6.93;2.30;;;13.60;1.00;;;;;;5016565;28;20503;-79
2022/09/03 01:29:36;;;;;;;5.93;1.73;;;13.60;1.00;;;;;;5018160;28;20462;-82
2022/09/03 01:32:14;;;;;;;7.50;2.00;;;13.50;1.00;;;;;;5022683;28;20961;-80
2022/09/03 01:34:52;;;;;;;6.10;1.83;;;13.60;1.00;;;;;;5002617;28;20462;-82
2022/09/03 01:37:31;;;;;;;6.73;1.90;;;13.50;1.00;;;;;;5005244;28;20497;-81
2022/09/03 01:40:10;;;;;;;6.53;2.43;;;13.50;1.00;;;;;;5011484;28;24306;-77
2022/09/03 01:42:50;;;;;;;7.00;2.00;;;13.50;1.00;;;;;;4995671;28;20565;-82
2022/09/03 01:45:34;;;;;;;6.77;2.27;;;13.50;1.00;;;;;;4999744;28;20419;-82
2022/09/03 01:48:15;;;;;;;10.70;2.00;;;13.50;1.00;;;;;;5007314;28;20502;-81
2022/09/03 01:50:51;;;;;;;7.20;2.00;;;13.50;1.00;;;;;;4984381;28;20459;-77
2022/09/03 01:53:38;;;;;;;6.53;2.40;;;13.40;1.00;;;;;;5007228;28;20420;-80
2022/09/03 01:56:25;;;;;;;6.10;1.80;;;13.30;1.00;;;;;;5002451;28;20455;-78
2022/09/03 01:59:02;;;;;;;6.67;2.10;;;13.30;1.00;;;;;;5001109;28;20502;-81
2022/09/03 02:01:33;;;;;;;7.53;2.70;;;13.30;1.00;;;;;;5002618;28;20956;-82
2022/09/03 02:04:01;;;;;;;8.47;1.97;;;13.30;1.00;;;;;;5004709;28;20663;-78
2022/09/03 02:06:31;;;;;;;6.60;1.90;;;13.30;1.00;;;;;;4998140;28;20495;-80
2022/09/03 02:08:58;;;;;;;7.13;2.50;;;13.20;1.00;;;;;;4998537;28;20458;-78
2022/09/03 02:11:28;;;;;;;6.77;1.53;;;13.20;1.00;;;;;;5000870;28;20465;-80
2022/09/03 02:13:58;;;;;;;7.10;2.00;;;13.20;1.00;;;;;;5004787;28;20486;-81
2022/09/03 02:16:34;;;;;;;7.00;1.73;;;13.20;1.00;;;;;;4998550;28;20466;-82
2022/09/03 02:19:09;;;;;;;6.23;2.20;;;13.20;1.00;;;;;;5002993;28;20474;-78
2022/09/03 02:21:39;;;;;;;6.30;2.07;;;13.20;1.00;;;;;;4987421;28;20425;-80
2022/09/03 02:24:09;;;;;;;6.20;2.00;;;13.10;1.00;;;;;;5006662;28;20515;-81
2022/09/03 02:26:36;;;;;;;6.43;1.60;;;13.10;1.00;;;;;;5000800;28;20487;-77
2022/09/03 02:29:04;;;;;;;6.00;1.97;;;13.10;1.00;;;;;;4998543;28;20513;-78
2022/09/03 02:31:37;;;;;;;6.30;1.80;;;13.00;1.00;;;;;;5003425;28;20486;-78
2022/09/03 02:34:09;;;;;;;7.70;2.80;;;13.00;1.00;;;;;;5003976;28;20485;-80
2022/09/03 02:36:39;;;;;;;5.60;2.00;;;13.00;1.00;;;;;;5005126;28;21099;-81
2022/09/03 02:39:08;;;;;;;7.23;1.80;;;13.00;1.00;;;;;;5003871;28;20431;-82
2022/09/03 02:41:35;;;;;;;5.80;1.73;;;12.90;1.00;;;;;;4987207;28;20423;-81
2022/09/03 02:44:12;;;;;;;7.43;2.20;;;12.90;1.00;;;;;;5003756;28;20503;-81
2022/09/03 02:46:49;;;;;;;7.97;1.87;;;12.90;1.00;;;;;;4997555;28;20976;-81
2022/09/03 02:49:16;;;;;;;5.80;1.80;;;12.90;1.00;;;;;;5020463;28;20438;-81
2022/09/03 02:51:49;;;;;;;5.80;2.03;;;12.90;1.00;;;;;;5002178;28;25324;-82
2022/09/03 02:54:16;;;;;;;7.27;2.00;;;12.80;1.00;;;;;;4991771;28;20541;-80
2022/09/03 02:56:48;;;;;;;6.77;2.37;;;12.80;1.00;;;;;;5008686;28;21464;-80
2022/09/03 02:59:16;;;;;;;5.83;1.90;;;12.80;1.00;;;;;;5011825;28;20449;-81
2022/09/03 03:01:49;;;;;;;8.80;2.17;;;12.80;1.00;;;;;;5009077;28;23433;-80
2022/09/03 03:04:16;;;;;;;6.10;1.90;;;12.80;1.00;;;;;;5012139;28;20526;-79
2022/09/03 03:06:49;;;;;;;5.80;1.73;;;12.70;1.00;;;;;;5006956;28;20462;-82
2022/09/03 03:09:16;;;;;;;8.13;2.70;;;12.70;1.00;;;;;;5004989;28;20606;-80
2022/09/03 03:11:49;;;;;;;6.17;2.00;;;12.80;1.00;;;;;;5006267;28;20455;-76
2022/09/03 03:14:18;;;;;;;6.80;2.20;;;12.80;1.00;;;;;;5001799;28;20550;-77
2022/09/03 03:16:51;;;;;;;6.13;1.60;;;12.80;1.00;;;;;;5005780;28;20479;-78
2022/09/03 03:19:18;;;;;;;6.00;2.13;;;12.80;1.00;;;;;;5012658;28;20624;-82
2022/09/03 03:21:49;;;;;;;5.80;1.80;;;12.80;1.00;;;;;;5002410;28;20409;-80
2022/09/03 03:24:16;;;;;;;7.20;2.13;;;12.70;1.00;;;;;;5003767;28;20430;-80
2022/09/03 03:26:49;;;;;;;6.07;1.80;;;12.80;1.00;;;;;;4994893;28;20514;-81
2022/09/03 03:29:17;;;;;;;7.57;2.30;;;12.70;1.00;;;;;;5015137;28;20557;-80
2022/09/03 03:31:51;;;;;;;7.57;2.30;;;12.70;1.00;;;;;;5000585;28;20427;-79
2022/09/03 03:34:18;;;;;;;6.17;2.03;;;12.70;1.00;;;;;;5006358;28;20494;-80
2022/09/03 03:36:49;;;;;;;7.13;2.37;;;12.70;1.00;;;;;;4995304;28;20482;-80
2022/09/03 03:39:16;;;;;;;6.90;2.53;;;12.70;1.00;;;;;;4999981;28;20484;-79
2022/09/03 03:41:48;;;;;;;8.40;2.60;;;12.70;1.00;;;;;;5001142;28;20448;-81
2022/09/03 03:44:16;;;;;;;6.77;2.17;;;12.60;1.00;;;;;;4997886;28;20468;-79
2022/09/03 03:46:43;;;;;;;8.33;2.77;;;12.60;1.00;;;;;;5002566;28;20431;-81
2022/09/03 03:49:11;;;;;;;6.90;2.30;;;12.60;1.00;;;;;;5004637;28;20479;-81
2022/09/03 03:51:39;;;;;;;6.30;2.30;;;12.70;1.00;;;;;;4994536;28;20451;-80
2022/09/03 03:54:10;;;;;;;6.83;2.27;;;12.70;1.00;;;;;;5007503;28;20562;-81
2022/09/03 03:56:37;;;;;;;9.70;2.87;;;12.70;1.00;;;;;;5002118;28;20547;-77
2022/09/03 03:59:12;;;;;;;6.23;1.97;;;12.70;1.00;;;;;;5002729;28;20478;-77
2022/09/03 04:01:39;;;;;;;6.20;2.43;;;12.70;1.00;;;;;;5000147;28;20455;-77
2022/09/03 04:04:11;;;;;;;6.37;2.70;;;12.80;1.00;;;;;;4995774;28;20422;-80
2022/09/03 04:06:38;;;;;;;6.00;2.23;;;12.80;1.00;;;;;;4997299;28;20486;-76
2022/09/03 04:09:10;;;;;;;8.30;3.30;;;12.80;1.00;;;;;;4999614;28;20492;-77
2022/09/03 04:11:37;;;;;;;10.13;3.20;;;12.80;1.00;;;;;;4996508;28;20485;-77
2022/09/03 04:14:08;;;;;;;7.70;2.90;;;12.70;1.00;;;;;;4998803;28;20481;-76
2022/09/03 04:16:35;;;;;;;6.73;2.37;;;12.70;1.00;;;;;;4996639;28;20467;-81
2022/09/03 04:19:02;;;;;;;7.43;2.93;;;12.70;1.00;;;;;;4998953;28;20478;-80
2022/09/03 04:21:32;;;;;;;7.60;3.70;;;12.60;1.00;;;;;;5005008;28;20484;-80
2022/09/03 04:23:59;;;;;;;10.90;2.67;;;12.60;1.00;;;;;;4999509;28;20559;-80
2022/09/03 04:26:32;;;;;;;11.50;2.87;;;12.60;1.00;;;;;;5002472;28;20427;-80
2022/09/03 04:28:59;;;;;;;8.33;2.97;;;12.60;1.00;;;;;;5002583;28;20452;-82
2022/09/03 04:31:35;;;;;;;9.80;3.00;;;12.60;1.00;;;;;;4999858;28;20415;-80
2022/09/03 04:34:01;;;;;;;8.20;3.27;;;12.50;1.00;;;;;;5012173;28;20524;-77
2022/09/03 04:36:32;;;;;;;8.20;3.00;;;12.60;1.00;;;;;;5027716;28;20402;-81
2022/09/03 04:39:01;;;;;;;7.93;3.10;;;12.50;1.00;;;;;;5019039;28;20515;-77
2022/09/03 04:41:31;;;;;;;8.33;2.93;;;12.60;1.00;;;;;;5019038;28;20418;-78
2022/09/03 04:43:59;;;;;;;7.00;3.03;;;12.50;1.00;;;;;;5031916;28;20466;-78
2022/09/03 04:46:32;;;;;;;7.13;2.50;;;12.50;1.00;;;;;;5024718;28;20438;-81
2022/09/03 04:48:59;;;;;;;8.23;3.53;;;12.50;1.00;;;;;;5026527;28;20555;-81
2022/09/03 04:51:30;;;;;;;6.27;2.40;;;12.50;1.00;;;;;;5026630;28;20435;-77
2022/09/03 04:54:02;;;;;;;6.60;2.70;;;12.50;1.00;;;;;;5014068;28;20442;-76
2022/09/03 04:56:32;;;;;;;7.40;2.90;;;12.40;1.00;;;;;;5016302;28;20426;-77
2022/09/03 04:59:01;;;;;;;7.13;2.77;;;12.40;1.00;;;;;;5021845;28;20470;-81
2022/09/03 05:01:33;;;;;;;7.77;3.20;;;12.50;1.00;;;;;;5021264;28;20489;-75
2022/09/03 05:04:00;;;;;;;7.10;2.77;;;12.50;1.00;;;;;;5018093;28;20461;-76
2022/09/03 05:06:34;;;;;;;7.43;3.17;;;12.50;1.00;;;;;;5020662;28;20414;-78
2022/09/03 05:09:09;;;;;;;8.90;3.50;;;12.60;1.00;;;;;;5022900;28;20462;-80
2022/09/03 05:11:37;;;;;;;6.73;3.13;;;12.60;1.00;;;;;;5023273;28;20458;-80
2022/09/03 05:14:11;;;;;;;7.07;2.50;;;12.70;1.00;;;;;;5018935;28;20466;-76
2022/09/03 05:16:38;;;;;;;7.07;3.47;;;12.60;1.00;;;;;;5018781;28;20470;-75
2022/09/03 05:19:11;;;;;;;7.50;3.60;;;12.70;1.00;;;;;;5024003;28;20499;-81
2022/09/03 05:21:38;;;;;;;10.00;3.30;;;12.70;1.00;;;;;;5025064;28;20434;-81
2022/09/03 05:24:11;;;;;;;8.43;3.00;;;12.60;1.00;;;;;;5017921;28;20430;-80
2022/09/03 05:26:39;;;;;;;8.37;2.33;;;12.70;1.00;;;;;;5019167;28;20414;-80
2022/09/03 05:29:14;;;;;;;8.53;3.40;;;12.70;1.00;;;;;;5021879;28;20444;-79
2022/09/03 05:31:41;;;;;;;6.90;2.87;;;12.80;1.00;;;;;;5018850;28;20465;-77
2022/09/03 05:34:10;;;;;;;8.33;3.13;;;12.80;1.00;;;;;;5007029;28;21300;-77
2022/09/03 05:36:40;;;;;;;6.27;2.50;;;12.90;1.00;;;;;;5004098;28;20403;-81
2022/09/03 05:39:12;;;;;;;7.97;3.13;;;12.90;1.00;;;;;;4999928;28;20463;-80
2022/09/03 05:41:39;;;;;;;8.10;3.40;;;12.90;1.00;;;;;;4997661;28;20550;-77
2022/09/03 05:44:11;;;;;;;7.40;2.90;;;12.90;1.00;;;;;;5002091;28;20486;-80
2022/09/03 05:46:38;;;;;;;7.97;3.07;;;13.00;1.00;;;;;;5006868;28;20505;-81
2022/09/03 05:49:11;;;;;;;9.30;3.60;;;13.00;1.00;;;;;;5005465;28;20478;-81
2022/09/03 05:51:39;;;;;;;9.50;3.47;;;13.00;1.00;;;;;;5006450;28;20512;-80
2022/09/03 05:54:12;;;;;;;7.80;3.00;;;13.00;1.00;;;;;;5004483;28;20442;-77
2022/09/03 05:56:41;;;;;;;8.00;3.00;;;13.00;1.00;;;;;;5007716;28;20824;-80
2022/09/03 05:59:12;;;;;;;7.00;2.90;;;13.00;1.00;;;;;;5005588;28;20435;-80
2022/09/03 06:01:41;;;;;;;8.20;2.70;;;13.10;1.00;;;;;;5003764;28;21122;-77
2022/09/03 06:04:17;;;;;;;9.70;3.90;;;13.30;1.00;;;;;;5004435;28;20474;-80
2022/09/03 06:06:50;;;;;;;7.20;3.10;;;13.40;1.00;;;;;;5005041;28;20516;-76
2022/09/03 06:09:20;;;;;;;7.40;2.97;;;13.30;1.00;;;;;;5003398;28;20545;-80
2022/09/03 06:11:52;;;;;;;11.00;3.93;;;13.40;1.00;;;;;;5008785;28;20467;-78
2022/09/03 06:14:20;;;;;;;9.60;3.30;;;13.50;1.00;;;;;;4993900;28;20455;-76
2022/09/03 06:16:51;;;;;;;8.60;3.00;;;13.60;1.00;;;;;;5009155;28;20418;-81
2022/09/03 06:19:19;;;;;;;8.60;3.43;;;13.60;1.00;;;;;;5003024;28;20457;-80
2022/09/03 06:21:51;;;;;;;7.53;2.93;;;13.70;1.00;;;;;;5007898;28;20411;-80
2022/09/03 06:24:22;;;;;;;6.90;3.00;;;13.80;1.00;;;;;;5000407;28;20501;-81
2022/09/03 06:26:51;;;;;;;10.97;3.60;;;14.00;1.00;;;;;;5013877;28;21066;-79
2022/09/03 06:29:19;;;;;;;7.37;3.30;;;14.00;1.00;;;;;;5007026;28;20438;-79
2022/09/03 06:31:51;;;;;;;7.53;3.00;;;14.20;1.00;;;;;;5001291;28;21982;-77
2022/09/03 06:34:18;;;;;;;8.00;2.73;;;14.20;1.00;;;;;;5005557;28;20520;-79
2022/09/03 06:36:50;;;;;;;8.20;2.77;;;14.30;1.00;;;;;;5008866;28;20506;-78
2022/09/03 06:39:16;;;;;;;7.00;2.73;;;14.60;1.00;;;;;;5002195;28;20455;-80
2022/09/03 06:41:50;;;;;;;7.17;3.23;;;14.80;1.00;;;;;;5005093;28;20615;-75
2022/09/03 06:44:20;;;;;;;6.60;2.83;;;14.80;1.00;;;;;;5000255;28;20512;-78
2022/09/03 06:46:52;;;;;;;7.00;2.60;;;14.90;1.00;;;;;;5009234;28;20475;-82
2022/09/03 06:49:20;;;;;;;7.23;2.47;;;14.80;1.00;;;;;;5007878;28;20435;-80
2022/09/03 06:51:50;;;;;;;8.13;3.10;;;15.00;1.00;;;;;;5005279;28;20483;-81
2022/09/03 06:54:18;;;;;;;9.07;2.77;;;14.90;1.00;;;;;;4987717;28;20497;-80
2022/09/03 06:56:55;;;;;;;7.77;3.00;;;15.10;1.00;;;;;;5005952;28;20465;-81
2022/09/03 06:59:21;;;;;;;9.10;2.47;;;15.30;1.00;;;;;;5002813;28;20944;-79
2022/09/03 07:01:52;;;;;;;7.80;2.80;;;15.50;1.00;;;;;;4997304;28;20423;-77
2022/09/03 07:04:19;;;;;;;7.87;2.93;;;15.50;1.00;;;;;;4995507;28;20476;-76
2022/09/03 07:06:51;;;;;;;10.23;3.70;;;15.70;1.00;;;;;;4994970;28;20462;-77
2022/09/03 07:09:18;;;;;;;8.23;2.53;;;16.00;1.00;;;;;;4992920;28;20498;-77
2022/09/03 07:11:52;;;;;;;6.70;2.73;;;16.20;1.00;;;;;;4994421;28;21034;-75
2022/09/03 07:14:20;;;;;;;7.50;2.97;;;16.50;1.00;;;;;;4997485;28;20544;-77
2022/09/03 07:16:51;;;;;;;6.00;2.80;;;16.60;1.00;;;;;;4999388;28;20399;-76
2022/09/03 07:19:19;;;;;;;10.53;6.20;;;16.70;1.00;;;;;;4996466;28;20566;-79
2022/09/03 07:21:51;;;;;;;6.70;2.50;;;16.90;1.00;;;;;;4996368;28;20471;-76
2022/09/03 07:24:21;;;;;;;8.30;2.90;;;17.10;1.00;;;;;;4998133;28;20439;-77
2022/09/03 07:26:53;;;;;;;6.30;2.20;;;17.20;1.00;;;;;;4993895;28;20407;-76
2022/09/03 07:29:20;;;;;;;9.23;2.57;;;17.30;1.00;;;;;;4993533;28;20463;-77
2022/09/03 07:31:52;;;;;;;7.73;2.50;;;17.10;1.00;;;;;;4999388;28;20459;-77
2022/09/03 07:34:22;;;;;;;6.10;2.40;;;17.10;1.00;;;;;;5001751;28;20490;-76
2022/09/03 07:36:52;;;;;;;7.13;2.70;;;17.10;1.00;;;;;;4990987;28;20431;-77
2022/09/03 07:39:19;;;;;;;8.50;2.60;;;17.10;1.00;;;;;;4994125;28;20522;-76
2022/09/03 07:41:54;;;;;;;6.83;2.70;;;17.10;1.00;;;;;;4993842;28;20428;-76
2022/09/03 07:44:23;;;;;;;8.40;2.50;;;17.20;1.00;;;;;;4984784;28;20532;-76
2022/09/03 07:46:52;;;;;;;6.83;2.53;;;17.30;1.00;;;;;;5004832;28;20539;-77
2022/09/03 07:49:20;;;;;;;7.00;2.33;;;17.40;1.00;;;;;;4998822;28;20478;-79
2022/09/03 07:51:56;;;;;;;6.70;2.57;;;17.50;1.00;;;;;;5000950;28;20431;-77
2022/09/03 07:54:25;;;;;;;6.53;2.23;;;17.60;1.00;;;;;;4999094;28;20475;-76
2022/09/03 07:56:54;;;;;;;7.33;2.77;;;17.70;1.00;;;;;;5002448;28;20538;-76
2022/09/03 07:59:21;;;;;;;9.00;3.20;;;17.80;1.00;;;;;;4994085;28;20970;-78
2022/09/03 08:01:51;;;;;;;9.13;2.07;;;18.00;1.00;;;;;;4987909;28;21000;-77
2022/09/03 08:04:20;;;;;;;7.17;2.60;;;18.40;1.00;;;;;;4990306;28;20479;-78
2022/09/03 08:06:54;;;;;;;6.50;2.77;;;18.50;1.00;;;;;;4997504;28;20433;-76
2022/09/03 08:09:21;;;;;;;6.40;2.80;;;18.60;1.00;;;;;;5000290;28;20471;-77
2022/09/03 08:11:59;;;;;;;5.13;2.17;;;18.50;1.00;;;;;;4998515;28;20407;-75
2022/09/03 08:14:29;;;;;;;6.17;2.50;;;18.50;1.00;;;;;;4998925;28;20565;-77
2022/09/03 08:16:58;;;;;;;7.30;2.50;;;18.50;1.00;;;;;;4983954;28;20845;-76
2022/09/03 08:19:32;;;;;;;5.97;2.97;;;18.60;1.00;;;;;;4998835;28;21378;-77
2022/09/03 08:21:59;;;;;;;5.80;2.30;;;18.70;1.00;;;;;;4999217;28;20912;-77
2022/09/03 08:24:32;;;;;;;7.97;2.47;;;18.70;1.00;;;;;;4997897;28;20437;-76
2022/09/03 08:27:01;;;;;;;7.57;2.63;;;18.70;1.00;;;;;;4999641;28;20419;-77
2022/09/03 08:29:27;;;;;;;6.83;2.63;;;18.60;1.00;;;;;;4994979;28;20529;-80
2022/09/03 08:31:54;;;;;;;6.80;3.00;;;18.60;1.00;;;;;;4997620;28;20461;-78
2022/09/03 08:34:24;;;;;;;9.30;3.47;;;18.70;1.00;;;;;;4982111;28;20418;-76
2022/09/03 08:36:53;;;;;;;6.13;2.57;;;18.90;1.00;;;;;;5005648;28;20493;-76
2022/09/03 08:39:24;;;;;;;5.67;2.40;;;18.80;1.00;;;;;;4999247;28;20458;-77
2022/09/03 08:42:31;;;;;;;7.03;2.40;;;18.80;1.00;;;;;;4999775;28;20482;-78
2022/09/03 08:45:03;;;;;;;6.40;2.87;;;18.90;1.00;;;;;;5000207;28;20458;-75
2022/09/03 08:47:37;;;;;;;8.53;2.50;;;18.90;1.00;;;;;;4999038;28;20513;-77
2022/09/03 08:50:26;;;;;;;6.07;2.30;;;19.00;1.00;;;;;;4997556;28;20556;-78
2022/09/03 08:52:59;;;;;;;7.10;2.40;;;19.00;1.00;;;;;;4999375;28;20442;-78
2022/09/03 08:55:32;;;;;;;7.40;2.50;;;19.10;1.00;;;;;;4998130;28;20557;-77
2022/09/03 08:58:06;;;;;;;7.47;2.40;;;19.20;1.00;;;;;;5002974;28;20526;-78
2022/09/03 09:00:46;;;;;;;7.47;2.30;;;19.40;1.00;;;;;;5000248;28;20446;-77
2022/09/03 09:03:34;;;;;;;6.30;2.33;;;19.50;1.00;;;;;;5004465;28;20429;-77
2022/09/03 09:06:12;;;;;;;5.53;1.90;;;19.70;1.00;;;;;;5001129;28;20916;-78
2022/09/03 09:08:53;;;;;;;6.70;2.17;;;19.90;1.00;;;;;;5005880;28;20546;-78
2022/09/03 09:11:34;;;;;;;6.60;2.50;;;20.00;1.00;;;;;;4998133;28;20423;-78
2022/09/03 09:14:07;;;;;;;6.50;2.40;;;20.10;1.00;;;;;;4998173;28;20432;-78
2022/09/03 09:16:43;;;;;;;6.33;2.17;;;20.30;1.00;;;;;;5001498;28;20477;-78
2022/09/03 09:19:33;;;;;;;6.40;2.30;;;20.40;1.00;;;;;;5002809;28;20421;-76
2022/09/03 09:22:03;;;;;;;5.60;2.40;;;20.60;1.00;;;;;;5002777;28;20489;-78
2022/09/03 09:24:39;;;;;;;7.50;4.60;;;21.10;1.00;;;;;;4984522;28;20430;-77
2022/09/03 09:27:07;;;;;;;4.97;1.80;;;22.40;1.00;;;;;;5016756;28;20430;-77
2022/09/03 09:29:39;;;;;;;8.33;2.07;;;24.00;1.00;;;;;;5005409;28;20474;-78
2022/09/03 09:32:12;;;;;;;8.03;2.00;;;25.00;1.00;;;;;;4999264;28;20427;-76
2022/09/03 09:34:41;;;;;;;5.63;2.10;;;25.40;1.00;;;;;;5000057;28;20576;-76
2022/09/03 09:37:12;;;;;;;6.70;2.03;;;26.60;1.00;;;;;;4998922;28;20465;-75
2022/09/03 09:39:44;;;;;;;4.80;1.90;;;27.40;1.00;;;;;;4997393;28;20459;-76
2022/09/03 09:42:12;;;;;;;6.67;1.90;;;28.10;1.00;;;;;;5003256;28;20485;-77
2022/09/03 09:44:44;;;;;;;5.00;1.80;;;29.00;1.00;;;;;;5008321;28;20446;-76
2022/09/03 09:47:16;;;;;;;7.17;2.43;;;29.40;1.00;;;;;;5005387;28;20961;-75
2022/09/03 09:50:03;;;;;;;4.30;1.70;;;28.70;1.00;;;;;;5002547;28;20418;-75
2022/09/03 09:52:31;;;;;;;6.57;2.30;;;29.20;1.00;;;;;;5005561;28;20503;-79
2022/09/03 09:55:08;;;;;;;5.23;2.60;;;29.60;1.00;;;;;;5003427;28;20458;-76
2022/09/03 09:57:36;;;;;;;5.30;1.97;;;30.20;1.00;;;;;;5005108;28;20462;-76
2022/09/03 10:00:14;;;;;;;7.60;2.37;;;30.40;1.00;;;;;;5005710;28;20983;-78
2022/09/03 10:02:48;;;;;;;6.17;2.20;;;30.90;1.00;;;;;;5001775;28;20458;-77
2022/09/03 10:05:20;;;;;;;6.17;1.90;;;30.90;1.00;;;;;;5001241;28;20593;-77
2022/09/03 10:08:03;;;;;;;4.60;2.10;;;31.30;1.00;;;;;;5002156;28;20466;-77
2022/09/03 10:10:36;;;;;;;4.70;1.70;;;31.20;1.00;;;;;;5001115;28;20509;-77
2022/09/03 10:13:08;;;;;;;5.17;1.90;;;31.60;1.00;;;;;;4999281;28;20448;-76
2022/09/03 10:15:46;;;;;;;3.97;1.77;;;31.20;1.00;;;;;;5001404;28;20976;-76
2022/09/03 10:18:24;;;;;;;5.07;1.80;;;31.20;1.00;;;;;;5004572;28;20473;-75
2022/09/03 10:21:05;;;;;;;6.00;3.23;;;31.00;1.00;;;;;;5006121;28;20465;-75
2022/09/03 10:23:44;;;;;;;4.33;1.60;;;31.20;1.00;;;;;;4998684;28;20474;-77
2022/09/03 10:26:16;;;;;;;5.07;1.80;;;31.50;1.00;;;;;;5003449;28;21001;-79
2022/09/03 10:28:49;;;;;;;4.27;1.97;;;31.70;1.00;;;;;;5007118;28;20437;-76
2022/09/03 10:31:44;;;;;;;4.30;1.90;;;32.10;1.00;;;;;;4998781;28;20570;-77
2022/09/03 10:34:17;;;;;;;4.90;1.73;;;32.20;1.00;;;;;;5009100;28;20454;-78
2022/09/03 10:36:52;;;;;;;4.03;1.87;;;32.10;1.00;;;;;;5003772;28;20436;-78
2022/09/03 10:39:32;;;;;;;6.33;2.17;;;33.00;1.00;;;;;;5000306;28;20565;-75
2022/09/03 10:42:25;;;;;;;4.60;1.93;;;31.90;1.00;;;;;;4997727;28;22190;-75
2022/09/03 10:45:08;;;;;;;5.50;1.63;;;29.30;1.00;;;;;;4998437;28;20470;-77
2022/09/03 10:48:04;;;;;;;5.00;2.10;;;28.00;1.00;;;;;;5001545;28;20487;-78
2022/09/03 10:50:47;;;;;;;8.93;3.67;;;26.40;1.00;;;;;;5003342;28;20558;-78
2022/09/03 10:53:31;;;;;;;6.10;2.00;;;25.70;1.00;;;;;;5001143;28;20969;-78
2022/09/03 10:56:07;;;;;;;5.60;2.20;;;25.30;1.00;;;;;;5004351;28;20472;-77
2022/09/03 10:59:05;;;;;;;7.63;2.00;;;24.90;1.00;;;;;;4996683;28;20938;-75
2022/09/03 11:01:46;;;;;;;4.90;1.70;;;25.60;1.00;;;;;;5006590;28;20505;-78
2022/09/03 11:04:34;;;;;;;5.53;2.17;;;25.90;1.00;;;;;;5007755;28;20413;-76
2022/09/03 11:07:04;;;;;;;4.40;1.60;;;27.30;1.00;;;;;;4998343;28;20517;-77
2022/09/03 11:09:44;;;;;;;5.57;2.00;;;29.10;1.00;;;;;;5006976;28;20533;-77
2022/09/03 11:12:20;;;;;;;6.40;1.60;;;29.10;1.00;;;;;;5006820;28;20825;-76
2022/09/03 11:14:57;;;;;;;4.10;1.67;;;27.10;1.00;;;;;;5005068;28;20456;-76
2022/09/03 11:17:29;;;;;;;5.03;2.00;;;28.10;1.00;;;;;;5005197;28;20534;-77
2022/09/03 11:20:10;;;;;;;5.20;1.80;;;29.60;1.00;;;;;;5000864;28;21008;-77
2022/09/03 11:22:43;;;;;;;4.90;1.90;;;28.80;1.00;;;;;;4997778;28;20466;-77
2022/09/03 11:25:13;;;;;;;7.83;2.60;;;27.30;1.00;;;;;;4997313;28;20496;-77
2022/09/03 11:28:08;;;;;;;4.33;1.90;;;26.70;1.00;;;;;;5017117;28;20422;-77
2022/09/03 11:30:52;;;;;;;4.37;1.60;;;26.60;1.00;;;;;;5003710;28;20517;-77
2022/09/03 11:33:28;;;;;;;8.57;5.80;;;26.90;1.00;;;;;;5008335;28;20434;-77
2022/09/03 11:36:05;;;;;;;4.37;1.70;;;28.50;1.00;;;;;;4990186;28;20462;-76
2022/09/03 11:38:32;;;;;;;4.47;2.00;;;29.80;1.00;;;;;;4999373;28;20462;-78
2022/09/03 11:41:13;;;;;;;4.87;1.83;;;29.40;1.00;;;;;;5001374;28;20481;-78
2022/09/03 11:43:46;;;;;;;4.43;1.70;;;28.90;1.00;;;;;;4998028;28;20446;-76
2022/09/03 11:46:27;;;;;;;6.20;2.00;;;27.90;1.00;;;;;;5005465;28;20567;-76
2022/09/03 11:48:55;;;;;;;4.40;1.67;;;27.00;1.00;;;;;;5008567;28;20929;-76
2022/09/03 11:51:44;;;;;;;3.90;1.70;;;26.10;1.00;;;;;;5004827;28;20414;-76
2022/09/03 11:54:25;;;;;;;6.47;1.73;;;26.30;1.00;;;;;;4994634;28;20466;-76
2022/09/03 11:57:14;;;;;;;6.03;2.50;;;26.10;1.00;;;;;;5008291;28;20467;-75
2022/09/03 11:59:45;;;;;;;7.23;2.10;;;26.80;1.00;;;;;;5005920;28;20426;-76
2022/09/03 12:02:27;;;;;;;7.10;1.83;;;26.70;1.00;;;;;;5008260;28;20451;-75
2022/09/03 12:05:13;;;;;;;5.80;2.00;;;25.30;1.00;;;;;;5006349;28;20778;-78
2022/09/03 12:07:57;;;;;;;6.10;1.47;;;24.70;1.00;;;;;;4998544;28;20437;-79
2022/09/03 12:10:34;;;;;;;5.07;1.93;;;24.60;1.00;;;;;;4991095;28;20442;-77
2022/09/03 12:13:44;;;;;;;6.43;3.47;;;24.30;1.00;;;;;;4992083;28;20494;-78
2022/09/03 12:16:31;;;;;;;5.83;2.03;;;24.20;1.00;;;;;;5006779;28;20480;-77
2022/09/03 12:19:12;;;;;;;4.73;1.73;;;24.90;1.00;;;;;;5000256;28;20460;-76
2022/09/03 12:21:47;;;;;;;5.87;2.47;;;27.10;1.00;;;;;;5001492;28;20582;-76
2022/09/03 12:24:16;;;;;;;4.70;1.93;;;27.80;1.00;;;;;;5003692;28;20455;-76
2022/09/03 12:26:47;;;;;;;6.83;2.40;;;27.40;1.00;;;;;;4997813;28;20466;-78
2022/09/03 12:29:26;;;;;;;4.60;2.20;;;27.00;1.00;;;;;;5018728;28;20846;-77
2022/09/03 12:31:59;;;;;;;3.87;1.50;;;26.10;1.00;;;;;;4968397;28;20472;-78
2022/09/03 12:34:27;;;;;;;6.03;1.90;;;25.80;1.00;;;;;;5007079;28;20469;-78
2022/09/03 12:36:55;;;;;;;5.30;2.00;;;25.70;1.00;;;;;;5003767;28;20487;-77
2022/09/03 12:39:38;;;;;;;7.93;1.70;;;28.00;1.00;;;;;;5002378;28;20550;-78
2022/09/03 12:42:08;;;;;;;5.60;1.67;;;30.30;1.00;;;;;;5003861;28;20436;-77
2022/09/03 12:44:41;;;;;;;4.07;1.57;;;32.30;1.00;;;;;;4999574;28;20459;-79
2022/09/03 12:47:16;;;;;;;8.40;3.30;;;33.50;1.00;;;;;;5001787;28;20545;-78
2022/09/03 12:49:44;;;;;;;6.23;2.10;;;32.40;1.00;;;;;;5005729;28;20517;-77
2022/09/03 12:52:22;;;;;;;5.40;1.53;;;30.20;1.00;;;;;;5005277;28;20435;-77
2022/09/03 12:54:58;;;;;;;5.63;2.07;;;28.90;1.00;;;;;;5002700;28;20442;-77
2022/09/03 12:57:44;;;;;;;3.80;1.47;;;28.70;1.00;;;;;;5000019;28;20621;-77
2022/09/03 13:00:17;;;;;;;5.60;1.97;;;27.90;1.00;;;;;;4991229;28;21011;-77
2022/09/03 13:02:53;;;;;;;4.83;1.80;;;27.20;1.00;;;;;;4999313;28;20442;-76
2022/09/03 13:05:27;;;;;;;4.20;1.60;;;26.80;1.00;;;;;;4994558;28;20462;-77
2022/09/03 13:07:58;;;;;;;5.20;2.03;;;26.60;1.00;;;;;;5010994;28;20439;-78
2022/09/03 13:10:33;;;;;;;4.90;1.73;;;26.40;1.00;;;;;;5007486;28;20443;-78
2022/09/03 13:13:23;;;;;;;7.00;1.57;;;26.40;1.00;;;;;;4997745;28;20426;-78
2022/09/03 13:16:47;;;;;;;5.43;1.63;;;27.40;1.00;;;;;;5001353;28;20467;-77
2022/09/03 13:19:23;;;;;;;5.40;1.50;;;28.10;1.00;;;;;;5007244;28;20467;-76
2022/09/03 13:22:00;;;;;;;5.30;2.23;;;29.60;1.00;;;;;;5007908;28;20469;-78
2022/09/03 13:25:04;;;;;;;4.93;1.57;;;31.30;1.00;;;;;;5003053;28;20514;-81
2022/09/03 13:27:44;;;;;;;14.90;10.10;;;32.80;1.00;;;;;;5002763;28;20451;-78
2022/09/03 13:30:15;;;;;;;3.33;1.40;;;32.50;1.00;;;;;;5010905;28;20473;-77
2022/09/03 13:32:56;;;;;;;3.67;1.50;;;33.50;1.00;;;;;;5001797;28;20407;-80
2022/09/03 13:35:34;;;;;;;4.80;1.73;;;34.40;1.00;;;;;;5003558;28;20493;-78